Alba, Michigan
Current Conditions -  °F | °C
As of 2:19 PM on Friday 24 Oct 2014 (Local Time) from KACB Reporting Station
Overcast Overcast  
Wind Chill: 55°   Ceiling: 1800
Heat Index: 55°   Visibility: 10mi
Dew Point: 49°   Wind: 5mph
Humidity: 80%   Direction: 250°WSW
Pressure: 29.97"   Gusts: NA
Location:  44.97°N, 84.97°W
Report Text: KACB 241819Z AUTO 25004KT 10SM SCT010 OVC018 13/09 A2997 RMK AO2 T01250092
Loading
Personal Weather Stations






























Interactive Weather Map New forecast layout! Learn more

10-Day Weather Forecast

Advertisements
Track Severe Weather on mobile